Time;durP1;ratioP1;P1;durP2;ratioP2;P2;SDS_P1;SDS_P2;PMS_P1;PMS_P2;Temp;Humidity;BMP_temperature;BMP_pressure;BME280_temperature;BME280_humidity;BME280_pressure;Samples;Min_cycle;Max_cycle;Signal;HPM_P1;HPM_P2
2023/09/14 00:01:26;;;;;;;8.30;3.50;;;;;;;12.56;100.00;102083.81;5096348;28;20039;-82
2023/09/14 00:03:52;;;;;;;8.50;3.20;;;;;;;12.54;100.00;102075.03;5095523;28;20485;-82
2023/09/14 00:06:17;;;;;;;6.13;3.30;;;;;;;12.52;100.00;102080.66;5095887;28;20063;-82
2023/09/14 00:08:43;;;;;;;7.33;3.13;;;;;;;12.50;100.00;102073.72;5113230;28;20482;-82
2023/09/14 00:11:08;;;;;;;4.80;3.30;;;;;;;12.46;100.00;102076.84;5113977;28;20443;-82
2023/09/14 00:13:34;;;;;;;7.97;3.40;;;;;;;12.44;100.00;102078.91;5112698;28;20023;-82
2023/09/14 00:15:59;;;;;;;8.60;3.60;;;;;;;12.42;100.00;102086.44;5112703;28;20032;-82
2023/09/14 00:18:25;;;;;;;6.50;3.00;;;;;;;12.38;100.00;102087.88;5113881;28;20081;-82
2023/09/14 00:20:52;;;;;;;12.18;2.90;;;;;;;12.33;100.00;102084.91;5112864;28;20479;-82
2023/09/14 00:23:19;;;;;;;7.22;3.20;;;;;;;12.34;100.00;102089.34;5113901;28;20078;-82
2023/09/14 00:25:44;;;;;;;8.97;3.10;;;;;;;12.30;100.00;102082.59;5095526;28;20039;-82
2023/09/14 00:28:10;;;;;;;7.32;3.05;;;;;;;12.27;100.00;102085.72;5112464;28;20019;-82
2023/09/14 00:30:35;;;;;;;7.27;3.07;;;;;;;12.22;100.00;102083.59;5114017;28;20019;-82
2023/09/14 00:33:01;;;;;;;5.30;2.80;;;;;;;12.22;100.00;102090.88;5096068;28;20071;-82
2023/09/14 00:35:26;;;;;;;6.83;3.60;;;;;;;12.20;100.00;102082.91;5095526;28;20028;-82
2023/09/14 00:37:52;;;;;;;6.13;3.20;;;;;;;12.18;100.00;102085.00;5112824;28;20032;-82
2023/09/14 00:40:17;;;;;;;5.57;3.30;;;;;;;12.13;100.00;102081.19;5114013;28;20606;-82
2023/09/14 00:42:48;;;;;;;6.70;3.50;;;;;;;12.08;100.00;102089.94;5079169;28;20172;-82
2023/09/14 00:45:16;;;;;;;7.85;3.40;;;;;;;12.08;100.00;102082.59;5113279;28;20032;-82
2023/09/14 00:47:45;;;;;;;5.70;3.45;;;;;;;12.10;100.00;102082.41;5112611;28;20118;-82
2023/09/14 00:50:15;;;;;;;8.95;3.35;;;;;;;12.14;100.00;102086.44;5095429;28;20036;-82
2023/09/14 00:52:40;;;;;;;7.10;3.27;;;;;;;12.09;100.00;102086.16;5111956;28;20073;-81
2023/09/14 00:55:07;;;;;;;7.43;3.42;;;;;;;12.02;100.00;102077.13;5095488;28;20074;-82
2023/09/14 00:57:35;;;;;;;8.43;3.70;;;;;;;12.00;100.00;102079.19;5113072;28;20353;-82
2023/09/14 01:00:05;;;;;;;7.20;3.13;;;;;;;11.98;100.00;102083.97;5112239;28;20023;-82
2023/09/14 01:02:32;;;;;;;9.07;3.60;;;;;;;11.93;100.00;102077.25;5099352;28;20035;-82
2023/09/14 01:04:57;;;;;;;7.53;3.63;;;;;;;11.96;100.00;102083.31;5116836;28;20023;-81
2023/09/14 01:07:23;;;;;;;9.53;4.30;;;;;;;11.95;100.00;102082.47;5115606;28;20032;-81
2023/09/14 01:09:48;;;;;;;6.22;3.40;;;;;;;11.95;100.00;102087.91;5098500;28;20035;-81
2023/09/14 01:12:14;;;;;;;8.23;3.67;;;;;;;11.94;100.00;102083.50;5098751;28;20028;-82
2023/09/14 01:14:59;;;;;;;6.93;3.70;;;;;;;11.90;100.00;102093.09;5081757;28;20377;-82
2023/09/14 01:17:40;;;;;;;12.00;3.73;;;;;;;11.88;100.00;102095.13;5115968;28;20077;-82
2023/09/14 01:20:08;;;;;;;10.48;3.40;;;;;;;11.85;100.00;102098.25;5115533;28;20028;-81
2023/09/14 01:22:42;;;;;;;9.10;3.45;;;;;;;11.83;100.00;102097.59;5116847;28;20034;-82
2023/09/14 01:25:19;;;;;;;12.05;3.20;;;;;;;11.78;100.00;102098.19;5116770;28;20067;-82
2023/09/14 01:27:45;;;;;;;6.93;3.15;;;;;;;11.75;100.00;102093.97;5115702;28;20475;-82
2023/09/14 01:30:10;;;;;;;6.10;3.37;;;;;;;11.73;100.00;102090.59;5115758;28;20036;-82
2023/09/14 01:32:37;;;;;;;5.60;3.20;;;;;;;11.72;100.00;102091.66;5098838;28;20527;-82
2023/09/14 01:35:04;;;;;;;8.07;3.50;;;;;;;11.72;100.00;102088.06;5115168;28;20031;-81
2023/09/14 01:37:29;;;;;;;9.68;3.63;;;;;;;11.69;100.00;102085.72;5081532;28;20040;-81
2023/09/14 01:39:57;;;;;;;8.10;3.70;;;;;;;11.66;100.00;102091.56;5097993;28;20043;-82
2023/09/14 01:42:23;;;;;;;8.05;3.33;;;;;;;11.62;100.00;102085.69;5116388;28;20043;-82
2023/09/14 01:44:50;;;;;;;7.03;3.00;;;;;;;11.62;100.00;102085.69;5097555;28;20040;-82
2023/09/14 01:47:16;;;;;;;6.05;3.00;;;;;;;11.60;100.00;102082.28;5098020;28;20031;-82
2023/09/14 01:49:42;;;;;;;6.40;2.80;;;;;;;11.57;100.00;102093.53;5115131;28;20039;-81
2023/09/14 01:52:08;;;;;;;6.82;3.13;;;;;;;11.53;100.00;102082.22;5114772;28;20048;-82
2023/09/14 01:54:33;;;;;;;7.93;3.50;;;;;;;11.49;100.00;102088.25;5114784;28;20055;-82
2023/09/14 01:56:59;;;;;;;8.60;2.97;;;;;;;11.45;100.00;102086.94;5097873;28;20058;-81
2023/09/14 01:59:24;;;;;;;6.03;2.93;;;;;;;11.45;100.00;102092.38;5097848;28;20387;-81
2023/09/14 02:01:50;;;;;;;9.27;2.70;;;;;;;11.42;100.00;102085.44;5116030;28;20074;-81
2023/09/14 02:04:15;;;;;;;6.57;2.50;;;;;;;11.40;100.00;102084.78;5081131;28;20086;-82
2023/09/14 02:06:40;;;;;;;6.03;2.73;;;;;;;11.38;100.00;102085.00;5081050;28;20023;-82
2023/09/14 02:09:06;;;;;;;4.40;2.35;;;;;;;11.32;100.00;102085.72;5097613;28;20106;-82
2023/09/14 02:11:31;;;;;;;6.53;2.50;;;;;;;11.31;100.00;102081.34;5115511;28;20039;-82
2023/09/14 02:13:57;;;;;;;4.23;2.30;;;;;;;11.29;100.00;102086.09;5097196;28;20036;-82
2023/09/14 02:16:23;;;;;;;6.65;2.17;;;;;;;11.25;100.00;102090.25;5097440;28;20034;-82
2023/09/14 02:18:49;;;;;;;4.83;2.60;;;;;;;11.24;100.00;102083.13;5097462;28;20027;-81
2023/09/14 02:21:16;;;;;;;6.40;2.70;;;;;;;11.24;100.00;102088.56;5114834;28;20265;-82
2023/09/14 02:23:42;;;;;;;7.88;2.58;;;;;;;11.21;100.00;102086.22;5114433;28;20066;-82
2023/09/14 02:26:07;;;;;;;6.20;2.53;;;;;;;11.16;100.00;102075.94;5115649;28;20027;-81
2023/09/14 02:28:33;;;;;;;5.27;2.60;;;;;;;11.14;100.00;102079.88;5097216;28;20034;-81
2023/09/14 02:30:58;;;;;;;8.40;2.50;;;;;;;11.13;100.00;102080.88;5080854;28;20067;-81
2023/09/14 02:33:23;;;;;;;7.17;2.67;;;;;;;11.12;100.00;102082.78;5096743;28;20471;-82
2023/09/14 02:35:50;;;;;;;5.60;2.78;;;;;;;11.11;100.00;102077.53;5113964;28;20049;-82
2023/09/14 02:38:16;;;;;;;7.97;2.73;;;;;;;11.09;100.00;102071.41;5114263;28;20106;-82
2023/09/14 02:40:42;;;;;;;7.43;2.80;;;;;;;11.08;100.00;102067.88;5113931;28;20527;-81
2023/09/14 02:43:07;;;;;;;7.37;3.33;;;;;;;11.06;100.00;102064.53;5113670;28;20028;-82
2023/09/14 02:45:32;;;;;;;4.90;2.30;;;;;;;11.04;100.00;102059.28;5114054;28;20036;-82
2023/09/14 02:47:58;;;;;;;6.50;2.50;;;;;;;11.02;100.00;102068.63;5096891;28;20063;-82
2023/09/14 02:50:23;;;;;;;10.37;2.87;;;;;;;10.99;100.00;102069.84;5113605;28;20114;-82
2023/09/14 02:52:49;;;;;;;6.47;2.27;;;;;;;10.99;100.00;102077.16;5113445;28;20052;-82
2023/09/14 02:55:14;;;;;;;7.87;2.60;;;;;;;10.98;100.00;102067.31;5113606;28;20075;-82
2023/09/14 02:57:39;;;;;;;3.80;2.50;;;;;;;10.96;100.00;102064.78;5097242;28;20383;-81
2023/09/14 03:00:07;;;;;;;7.80;2.78;;;;;;;10.94;100.00;102077.72;5113707;28;20035;-82
2023/09/14 03:02:33;;;;;;;8.13;2.47;;;;;;;10.94;100.00;102069.59;5080273;28;20036;-82
2023/09/14 03:04:58;;;;;;;6.97;2.70;;;;;;;10.92;100.00;102073.50;5113542;28;20069;-82
2023/09/14 03:07:24;;;;;;;4.37;2.60;;;;;;;10.91;100.00;102067.25;5114757;28;20464;-82
2023/09/14 03:09:49;;;;;;;5.13;2.77;;;;;;;10.92;100.00;102068.91;5113465;28;20028;-81
2023/09/14 03:12:14;;;;;;;6.00;3.03;;;;;;;10.91;100.00;102067.25;5114178;28;20360;-81
2023/09/14 03:14:40;;;;;;;8.67;3.00;;;;;;;10.88;100.00;102071.16;5114097;28;20031;-82
2023/09/14 03:17:08;;;;;;;10.50;3.50;;;;;;;10.88;100.00;102065.75;5096320;28;20380;-81
2023/09/14 03:19:37;;;;;;;9.05;3.28;;;;;;;10.87;100.00;102069.47;5113502;28;20031;-82
2023/09/14 03:22:02;;;;;;;7.07;3.43;;;;;;;10.84;100.00;102069.03;5096836;28;20027;-82
2023/09/14 03:24:27;;;;;;;9.10;3.55;;;;;;;10.79;100.00;102068.72;5113106;28;20372;-82
2023/09/14 03:26:53;;;;;;;5.70;3.57;;;;;;;10.75;100.00;102078.28;5096500;28;20489;-81
2023/09/14 03:29:18;;;;;;;8.47;3.10;;;;;;;10.75;100.00;102076.41;5079288;28;20076;-82
2023/09/14 03:31:44;;;;;;;6.50;3.70;;;;;;;10.76;100.00;102080.78;5096185;28;20123;-81
2023/09/14 03:34:09;;;;;;;6.33;3.40;;;;;;;10.76;100.00;102083.50;5096173;28;20440;-82
2023/09/14 03:36:36;;;;;;;11.23;3.40;;;;;;;10.74;100.00;102092.88;5095978;28;20024;-81
2023/09/14 03:39:01;;;;;;;7.17;3.17;;;;;;;10.75;100.00;102075.56;5112869;28;20028;-81
2023/09/14 03:41:26;;;;;;;7.10;3.00;;;;;;;10.72;100.00;102079.50;5079032;28;20122;-82
2023/09/14 03:43:52;;;;;;;6.83;3.40;;;;;;;10.73;100.00;102080.34;5113290;28;20130;-82
2023/09/14 03:46:17;;;;;;;6.37;3.47;;;;;;;10.73;100.00;102081.16;5096133;28;20069;-82
2023/09/14 03:48:43;;;;;;;5.53;2.97;;;;;;;10.75;100.00;102081.84;5112904;28;20031;-82
2023/09/14 03:51:08;;;;;;;13.77;3.60;;;;;;;10.74;100.00;102080.16;5079403;28;20039;-82
2023/09/14 03:53:33;;;;;;;5.90;3.45;;;;;;;10.73;100.00;102074.91;5095991;28;20046;-81
2023/09/14 03:55:59;;;;;;;7.33;3.30;;;;;;;10.75;100.00;102078.28;5095783;28;20032;-82
2023/09/14 03:58:26;;;;;;;7.07;3.15;;;;;;;10.72;100.00;102076.78;5113192;28;20127;-82
2023/09/14 04:00:51;;;;;;;9.53;3.57;;;;;;;10.73;100.00;102078.44;5113677;28;20059;-82
2023/09/14 04:03:17;;;;;;;9.15;3.75;;;;;;;10.71;100.00;102077.81;5096100;28;20430;-82
2023/09/14 04:05:44;;;;;;;10.20;3.50;;;;;;;10.71;100.00;102075.94;5112863;28;20058;-82
2023/09/14 04:08:09;;;;;;;4.70;3.05;;;;;;;10.73;100.00;102073.03;5113756;28;20536;-82
2023/09/14 04:10:39;;;;;;;6.70;3.73;;;;;;;10.71;100.00;102075.09;5112925;28;20039;-82
2023/09/14 04:13:31;;;;;;;8.10;3.47;;;;;;;10.70;100.00;102082.41;5112678;28;20054;-82
2023/09/14 04:15:58;;;;;;;6.93;3.63;;;;;;;10.68;100.00;102073.59;5095837;28;20035;-82
2023/09/14 04:18:24;;;;;;;11.77;3.70;;;;;;;10.69;100.00;102077.16;5113897;28;20035;-82
2023/09/14 04:20:50;;;;;;;7.03;3.88;;;;;;;10.66;100.00;102070.22;5112566;28;20459;-82
2023/09/14 04:23:16;;;;;;;9.63;3.63;;;;;;;10.61;100.00;102077.25;5095647;28;20032;-82
2023/09/14 04:25:44;;;;;;;8.45;3.60;;;;;;;10.60;100.00;102067.41;5095590;28;20035;-82
2023/09/14 04:28:18;;;;;;;7.90;3.75;;;;;;;10.57;100.00;102068.63;5112505;28;20050;-82
2023/09/14 04:30:45;;;;;;;8.67;3.80;;;;;;;10.56;100.00;102069.66;5096051;28;20108;-82
2023/09/14 04:33:12;;;;;;;15.43;3.90;;;;;;;10.55;100.00;102064.41;5112827;28;20034;-82
2023/09/14 04:35:37;;;;;;;8.07;3.78;;;;;;;10.51;100.00;102069.34;5097278;28;20020;-81
2023/09/14 04:38:03;;;;;;;6.23;3.43;;;;;;;10.49;100.00;102072.25;5099124;28;20089;-82
2023/09/14 04:40:28;;;;;;;8.20;3.88;;;;;;;10.49;100.00;102072.25;5082909;28;20023;-82
2023/09/14 04:42:53;;;;;;;12.97;3.70;;;;;;;10.48;100.00;102075.16;5117262;28;20360;-82
2023/09/14 04:45:19;;;;;;;6.77;3.67;;;;;;;10.47;100.00;102070.78;5116106;28;20027;-82
2023/09/14 04:47:44;;;;;;;9.80;4.10;;;;;;;10.46;100.00;102069.91;5116337;28;20038;-82
2023/09/14 04:50:09;;;;;;;8.40;3.83;;;;;;;10.46;100.00;102074.50;5115937;28;20059;-82
2023/09/14 04:52:35;;;;;;;9.30;4.45;;;;;;;10.46;100.00;102072.63;5116322;28;20056;-82
2023/09/14 04:55:00;;;;;;;8.67;3.93;;;;;;;10.43;100.00;102078.44;5116061;28;20051;-82
2023/09/14 04:57:26;;;;;;;7.93;3.97;;;;;;;10.41;100.00;102074.19;5116349;28;20055;-82
2023/09/14 04:59:51;;;;;;;9.37;4.00;;;;;;;10.37;100.00;102073.75;5098688;28;20092;-82
2023/09/14 05:02:16;;;;;;;6.73;3.77;;;;;;;10.32;100.00;102074.25;5082001;28;20098;-82
2023/09/14 05:04:42;;;;;;;8.27;3.93;;;;;;;10.29;100.00;102084.63;5098805;28;20433;-82
2023/09/14 05:07:07;;;;;;;9.10;4.10;;;;;;;10.31;100.00;102071.75;5098390;28;20031;-82
2023/09/14 05:09:32;;;;;;;7.23;3.67;;;;;;;10.29;100.00;102069.22;5116127;28;20482;-82
2023/09/14 05:11:58;;;;;;;7.47;3.40;;;;;;;10.28;100.00;102078.38;5099150;28;20035;-82
2023/09/14 05:14:24;;;;;;;5.37;3.67;;;;;;;10.29;100.00;102071.06;5099062;28;20027;-82
2023/09/14 05:16:49;;;;;;;8.52;3.55;;;;;;;10.30;100.00;102075.47;5081628;28;20031;-82
2023/09/14 05:19:15;;;;;;;6.03;3.60;;;;;;;10.31;100.00;102071.75;5081620;28;20089;-82
2023/09/14 05:21:40;;;;;;;8.63;3.67;;;;;;;10.32;100.00;102078.84;5098501;28;20107;-83
2023/09/14 05:24:05;;;;;;;6.82;3.80;;;;;;;10.32;100.00;102082.41;5098360;28;20027;-84
2023/09/14 05:26:31;;;;;;;8.50;3.73;;;;;;;10.29;100.00;102085.50;5116672;28;20027;-84
2023/09/14 05:28:59;;;;;;;9.40;3.93;;;;;;;10.31;100.00;102090.72;5115441;28;20039;-84
2023/09/14 05:31:24;;;;;;;7.85;3.70;;;;;;;10.34;100.00;102099.34;5115264;28;20039;-84
2023/09/14 05:33:52;;;;;;;6.83;4.07;;;;;;;10.39;100.00;102095.25;5098751;28;20038;-84
2023/09/14 05:36:18;;;;;;;10.23;3.95;;;;;;;10.43;100.00;102099.31;5115109;28;20027;-84
2023/09/14 05:38:44;;;;;;;8.95;3.80;;;;;;;10.46;100.00;102101.66;5081561;28;20421;-85
2023/09/14 05:41:10;;;;;;;9.30;4.07;;;;;;;10.50;100.00;102103.81;5114624;28;20084;-87
2023/09/14 05:43:35;;;;;;;8.95;4.13;;;;;;;10.56;100.00;102104.94;5097651;28;20023;-85
2023/09/14 05:46:02;;;;;;;6.87;3.60;;;;;;;10.62;100.00;102108.78;5115193;28;20138;-86
2023/09/14 05:48:28;;;;;;;8.82;4.15;;;;;;;10.64;100.00;102104.00;5114212;28;20062;-86
2023/09/14 05:50:53;;;;;;;8.57;3.63;;;;;;;10.71;100.00;102104.97;5115125;28;20019;-85
2023/09/14 05:53:21;;;;;;;10.27;4.13;;;;;;;10.76;100.00;102110.66;5097623;28;20074;-85
2023/09/14 05:55:56;;;;;;;;;;;;;;;;;;;;;
2023/09/14 05:58:22;;;;;;;7.60;3.60;;;;;;;10.90;100.00;102109.00;5116323;28;20386;-86
2023/09/14 06:00:51;;;;;;;8.17;3.80;;;;;;;10.96;100.00;102113.69;5115659;28;20030;-86
2023/09/14 06:03:16;;;;;;;9.07;4.20;;;;;;;11.01;100.00;102115.81;5114558;28;20114;-86
2023/09/14 06:05:42;;;;;;;6.87;4.57;;;;;;;11.11;100.00;102104.69;5114215;28;20473;-86
2023/09/14 06:08:07;;;;;;;8.73;4.23;;;;;;;11.17;100.00;102110.19;5114966;28;20435;-85
2023/09/14 06:10:33;;;;;;;6.07;3.73;;;;;;;11.27;100.00;102114.53;5080522;28;20035;-86
2023/09/14 06:12:58;;;;;;;12.15;4.55;;;;;;;11.32;100.00;102101.19;5116273;28;20035;-86
2023/09/14 06:15:24;;;;;;;10.57;4.57;;;;;;;11.40;100.00;102110.09;5096919;28;20536;-85
2023/09/14 06:17:51;;;;;;;9.10;5.10;;;;;;;11.49;100.00;102104.56;5115524;28;20377;-85
2023/09/14 06:20:17;;;;;;;9.23;4.78;;;;;;;11.58;100.00;102106.13;5114470;28;20039;-85
2023/09/14 06:22:42;;;;;;;12.53;5.10;;;;;;;11.67;100.00;102106.84;5096878;28;20100;-85
2023/09/14 06:25:08;;;;;;;14.07;4.93;;;;;;;11.76;100.00;102111.13;5097114;28;20293;-87
2023/09/14 06:27:34;;;;;;;9.57;5.07;;;;;;;11.87;100.00;102112.47;5097284;28;20031;-86
2023/09/14 06:30:01;;;;;;;10.68;5.03;;;;;;;11.95;100.00;102109.69;5097002;28;20081;-85
2023/09/14 06:32:27;;;;;;;10.52;5.63;;;;;;;12.06;100.00;102108.31;5097290;28;20028;-85
2023/09/14 06:34:55;;;;;;;12.63;6.93;;;;;;;12.13;100.00;102116.56;5114897;28;20042;-86
2023/09/14 06:37:21;;;;;;;13.85;6.70;;;;;;;12.22;100.00;102105.34;5113424;28;20036;-85
2023/09/14 06:39:46;;;;;;;15.93;7.00;;;;;;;12.30;100.00;102112.53;5113545;28;20520;-85
2023/09/14 06:42:12;;;;;;;17.83;6.67;;;;;;;12.38;100.00;102112.38;5113622;28;20500;-86
2023/09/14 06:44:38;;;;;;;15.30;7.28;;;;;;;12.46;100.00;102112.25;5113435;28;20052;-85
2023/09/14 06:47:03;;;;;;;12.70;6.83;;;;;;;12.55;100.00;102110.22;5114058;28;20058;-85
2023/09/14 06:49:29;;;;;;;14.45;7.40;;;;;;;12.64;100.00;102108.19;5114696;28;20467;-85
2023/09/14 06:51:54;;;;;;;11.90;6.93;;;;;;;12.71;100.00;102108.22;5112663;28;20048;-84
2023/09/14 06:54:20;;;;;;;13.20;7.27;;;;;;;12.80;100.00;102109.78;5113371;28;20478;-85
2023/09/14 06:56:45;;;;;;;17.50;7.90;;;;;;;12.91;100.00;102113.81;5096605;28;20039;-84
2023/09/14 06:59:11;;;;;;;14.03;7.67;;;;;;;13.01;100.00;102113.44;5095835;28;20027;-85
2023/09/14 07:01:36;;;;;;;21.03;7.40;;;;;;;13.13;100.00;102120.03;5115048;28;20028;-83
2023/09/14 07:04:02;;;;;;;13.50;7.00;;;;;;;13.27;100.00;102121.78;5096714;28;20040;-83
2023/09/14 07:06:27;;;;;;;14.95;7.38;;;;;;;13.42;100.00;102121.66;5113533;28;20032;-83
2023/09/14 07:08:52;;;;;;;17.93;6.93;;;;;;;13.57;100.00;102126.97;5096441;28;20482;-83
2023/09/14 07:11:18;;;;;;;14.37;7.20;;;;;;;13.69;100.00;102128.03;5113894;28;20485;-83
2023/09/14 07:13:43;;;;;;;19.00;7.17;;;;;;;13.82;100.00;102124.50;5096200;28;20084;-83
2023/09/14 07:16:09;;;;;;;16.13;7.90;;;;;;;13.97;100.00;102120.78;5113516;28;20032;-83
2023/09/14 07:18:34;;;;;;;15.20;6.93;;;;;;;14.10;100.00;102117.22;5113252;28;20031;-83
2023/09/14 07:21:04;;;;;;;16.43;7.83;;;;;;;14.21;100.00;102111.97;5096186;28;20076;-83
2023/09/14 07:23:32;;;;;;;14.75;6.95;;;;;;;14.34;100.00;102118.50;5096688;28;20088;-83
2023/09/14 07:25:58;;;;;;;16.93;7.30;;;;;;;14.47;100.00;102118.50;5096896;28;20109;-83
2023/09/14 07:28:23;;;;;;;16.27;7.65;;;;;;;14.59;100.00;102115.97;5096090;28;20028;-83
2023/09/14 07:30:52;;;;;;;14.50;7.13;;;;;;;14.73;100.00;102125.00;5113022;28;20027;-82
2023/09/14 07:33:18;;;;;;;11.40;6.85;;;;;;;14.90;100.00;102122.69;5114371;27;20459;-83
2023/09/14 07:35:46;;;;;;;13.73;6.80;;;;;;;15.03;100.00;102119.94;5079051;28;20023;-83
2023/09/14 07:38:12;;;;;;;16.13;6.90;;;;;;;15.19;100.00;102125.97;5113237;28;20028;-83
2023/09/14 07:40:38;;;;;;;12.98;6.50;;;;;;;15.32;100.00;102131.38;5114300;28;20031;-83
2023/09/14 07:43:04;;;;;;;10.87;6.40;;;;;;;15.44;100.00;102129.69;5096265;28;20383;-83
2023/09/14 07:45:32;;;;;;;13.57;6.03;;;;;;;15.58;100.00;102133.19;5112905;28;20376;-83
2023/09/14 07:48:00;;;;;;;15.10;6.57;;;;;;;15.69;100.00;102128.09;5112899;28;20073;-83
2023/09/14 07:50:25;;;;;;;16.40;7.05;;;;;;;15.84;100.00;102138.75;5113077;28;20100;-83
2023/09/14 07:52:50;;;;;;;13.33;6.33;;;;;;;15.94;100.00;102134.50;5112592;28;20096;-83
2023/09/14 07:55:16;;;;;;;16.40;5.87;;;;;;;16.03;100.00;102129.59;5113431;28;20034;-83
2023/09/14 07:57:41;;;;;;;13.05;6.05;;;;;;;16.11;100.00;102128.50;5112679;28;20036;-83
2023/09/14 08:00:07;;;;;;;15.37;6.57;;;;;;;16.22;100.00;102135.97;5096004;28;20035;-83
2023/09/14 08:02:33;;;;;;;13.02;6.38;;;;;;;16.35;100.00;102142.44;5112651;28;20462;-82
2023/09/14 08:04:58;;;;;;;20.57;6.67;;;;;;;16.45;100.00;102145.53;5113568;28;20019;-85
2023/09/14 08:07:24;;;;;;;12.90;6.07;;;;;;;16.59;100.00;102140.75;5113171;28;20478;-87
2023/09/14 08:09:49;;;;;;;10.97;6.57;;;;;;;16.72;100.00;102126.94;5113762;28;20073;-86
2023/09/14 08:12:15;;;;;;;13.03;6.90;;;;;;;16.87;100.00;102133.97;5116479;28;20795;-85
2023/09/14 08:14:40;;;;;;;14.77;7.37;;;;;;;16.97;100.00;102132.41;5100184;28;20035;-86
2023/09/14 08:17:06;;;;;;;14.67;7.20;;;;;;;17.05;100.00;102125.81;5117416;28;20024;-86
2023/09/14 08:19:46;;;;;;;;;;;;;;;;;;;;;
2023/09/14 08:22:23;;;;;;;14.80;7.77;;;;;;;17.12;100.00;102129.28;5117687;28;20035;-89
2023/09/14 08:24:49;;;;;;;17.83;8.43;;;;;;;17.20;100.00;102133.66;5100679;28;20030;-85
2023/09/14 08:27:15;;;;;;;16.13;8.20;;;;;;;17.21;100.00;102137.22;5118044;28;20043;-86
2023/09/14 08:29:43;;;;;;;12.98;7.50;;;;;;;17.28;100.00;102135.25;5117973;28;20035;-85
2023/09/14 08:32:08;;;;;;;16.13;8.07;;;;;;;17.39;100.00;102136.38;5100702;28;20027;-85
2023/09/14 08:34:34;;;;;;;13.98;7.78;;;;;;;17.40;100.00;102133.38;5116021;28;20521;-85
2023/09/14 08:37:00;;;;;;;17.60;8.00;;;;;;;17.62;100.00;102138.41;5116214;28;20118;-84
2023/09/14 08:39:25;;;;;;;13.63;8.18;;;;;;;17.94;100.00;102144.53;5117682;28;20030;-85
2023/09/14 08:41:51;;;;;;;13.10;8.30;;;;;;;18.23;100.00;102131.00;5116429;28;20016;-85
2023/09/14 08:44:19;;;;;;;14.57;8.38;;;;;;;18.44;100.00;102139.75;5117081;28;20031;-85
2023/09/14 08:46:46;;;;;;;15.33;8.77;;;;;;;18.56;99.23;102146.13;5117405;28;20031;-85
2023/09/14 08:49:13;;;;;;;12.75;8.50;;;;;;;18.70;96.39;102146.72;5115969;28;20061;-86
2023/09/14 08:51:41;;;;;;;15.57;8.88;;;;;;;18.95;96.84;102142.91;5099323;28;20128;-85
2023/09/14 08:54:06;;;;;;;16.67;8.30;;;;;;;19.18;94.92;102142.06;5115585;28;20055;-85
2023/09/14 08:56:34;;;;;;;16.53;8.77;;;;;;;19.32;92.55;102143.44;5115815;28;20024;-87
2023/09/14 08:59:04;;;;;;;16.45;8.48;;;;;;;19.38;93.22;102134.22;5115861;28;20472;-85
2023/09/14 09:01:31;;;;;;;16.80;8.27;;;;;;;19.23;91.42;102133.91;5115711;28;20023;-85
2023/09/14 09:03:56;;;;;;;15.93;8.40;;;;;;;19.20;92.20;102137.16;5098515;28;20364;-85
2023/09/14 09:06:22;;;;;;;16.33;8.40;;;;;;;19.16;89.95;102139.53;5116052;28;20039;-85
2023/09/14 09:08:48;;;;;;;14.02;8.38;;;;;;;19.23;89.38;102136.66;5098524;28;20031;-84
2023/09/14 09:11:14;;;;;;;14.30;7.28;;;;;;;19.26;89.20;102133.41;5098756;28;20139;-84
2023/09/14 09:13:45;;;;;;;14.67;7.27;;;;;;;19.30;89.36;102131.03;5115593;28;20139;-85
2023/09/14 09:16:12;;;;;;;19.00;10.10;;;;;;;19.35;88.79;102131.94;5098800;28;20085;-86
2023/09/14 09:19:06;;;;;;;13.95;7.47;;;;;;;19.36;88.22;102122.63;5115210;28;20472;-85
2023/09/14 09:21:35;;;;;;;12.63;7.22;;;;;;;19.30;87.08;102129.09;5114328;28;20015;-86
2023/09/14 09:24:06;;;;;;;14.00;7.70;;;;;;;19.24;86.68;102124.59;5099455;28;20061;-86
2023/09/14 09:30:00;;;;;;;10.93;7.03;;;;;;;19.40;87.72;102129.31;5116471;28;20448;-85
2023/09/14 09:32:29;;;;;;;13.55;6.85;;;;;;;19.59;85.04;102126.38;5115146;28;20028;-85
2023/09/14 09:34:54;;;;;;;12.40;5.90;;;;;;;19.82;82.98;102130.16;5099408;28;20043;-85
2023/09/14 09:37:33;;;;;;;9.80;5.70;;;;;;;20.27;83.52;102132.03;5115520;28;20065;-86
2023/09/14 09:39:59;;;;;;;8.77;5.20;;;;;;;20.62;79.78;102122.69;5115357;28;20027;-85
2023/09/14 09:42:24;;;;;;;8.07;4.87;;;;;;;20.79;77.36;102123.53;5115349;28;20031;-85
2023/09/14 09:44:57;;;;;;;9.00;5.27;;;;;;;20.95;76.88;102120.97;5115731;28;20038;-84
2023/09/14 09:50:57;;;;;;;9.32;5.18;;;;;;;21.18;76.90;102118.00;5116142;28;20030;-85
2023/09/14 09:57:58;;;;;;;9.30;4.88;;;;;;;21.55;77.26;102111.88;5111338;28;20059;-85
2023/09/14 10:21:33;;;;;;;9.07;4.50;;;;;;;22.64;68.85;102101.78;5031649;28;20037;-85
2023/09/14 10:27:29;;;;;;;10.50;4.37;;;;;;;23.34;64.55;102101.59;5032956;28;20103;-85
2023/09/14 10:29:58;;;;;;;9.07;4.50;;;;;;;23.44;61.61;102098.88;5034742;28;20044;-85
2023/09/14 10:35:47;;;;;;;8.40;3.80;;;;;;;24.13;58.46;102097.63;5115147;28;20429;-85
2023/09/14 10:42:05;;;;;;;3.63;2.40;;;;;;;24.04;52.89;102090.97;5114957;28;20513;-85
2023/09/14 10:48:50;;;;;;;6.32;2.72;;;;;;;24.42;55.73;102087.88;5115077;28;20482;-85
2023/09/14 11:23:19;;;;;;;5.00;2.30;;;;;;;26.91;50.33;102061.88;5112142;27;20062;-85
2023/09/14 11:25:47;;;;;;;4.00;2.38;;;;;;;27.04;43.94;102063.94;5075482;28;20036;-83
2023/09/14 11:28:22;;;;;;;5.15;2.50;;;;;;;26.66;45.00;102063.81;5075874;28;20140;-84
2023/09/14 11:30:51;;;;;;;3.38;2.17;;;;;;;26.11;42.99;102066.03;5059072;28;20044;-85
2023/09/14 11:33:17;;;;;;;3.67;2.10;;;;;;;25.65;45.22;102065.25;5075658;28;20036;-85
2023/09/14 11:35:47;;;;;;;3.80;2.13;;;;;;;26.88;46.39;102059.69;5042003;28;20032;-84
2023/09/14 11:38:20;;;;;;;4.35;2.35;;;;;;;30.81;39.10;102059.91;5058922;28;20040;-85
2023/09/14 11:40:46;;;;;;;5.30;2.45;;;;;;;34.09;30.94;102054.97;5075496;28;20069;-85
2023/09/14 11:43:20;;;;;;;4.47;2.40;;;;;;;35.74;28.29;102050.19;5075114;28;20390;-85
2023/09/14 11:45:48;;;;;;;3.70;2.30;;;;;;;36.48;26.12;102053.44;5092982;28;20113;-85
2023/09/14 11:48:19;;;;;;;3.65;2.28;;;;;;;37.49;24.58;102052.94;5075803;28;20070;-85
2023/09/14 11:50:47;;;;;;;4.25;3.03;;;;;;;39.93;22.05;102031.63;5093503;28;20028;-86
2023/09/14 11:53:19;;;;;;;4.38;2.45;;;;;;;42.13;20.29;102038.56;5075760;28;20502;-85
2023/09/14 11:55:53;;;;;;;3.43;2.87;;;;;;;41.19;20.72;102036.28;5075024;28;20490;-85
2023/09/14 11:58:23;;;;;;;5.22;2.92;;;;;;;40.30;21.01;102025.91;5075360;28;20130;-85
2023/09/14 12:00:51;;;;;;;4.32;3.80;;;;;;;37.04;23.65;102028.91;5076038;28;20383;-85
2023/09/14 12:03:17;;;;;;;4.68;3.75;;;;;;;35.56;25.83;102021.47;5093172;28;20569;-85
2023/09/14 12:05:42;;;;;;;6.03;3.90;;;;;;;37.43;23.78;102031.78;5058537;28;20115;-85
2023/09/14 12:08:12;;;;;;;5.53;4.30;;;;;;;36.85;24.59;102019.22;5058819;28;20073;-85
2023/09/14 12:10:39;;;;;;;6.97;3.87;;;;;;;35.29;25.89;102019.09;5075668;28;20032;-85
2023/09/14 12:13:11;;;;;;;5.30;3.92;;;;;;;33.99;27.97;102013.22;5058710;28;20036;-85
2023/09/14 12:15:41;;;;;;;6.50;3.95;;;;;;;33.17;29.12;102015.41;5074727;28;20032;-85
2023/09/14 12:18:06;;;;;;;7.20;3.80;;;;;;;32.24;30.09;102017.25;5075322;28;20468;-85
2023/09/14 12:20:35;;;;;;;8.53;4.40;;;;;;;31.40;31.57;102017.50;5075166;28;20043;-85
2023/09/14 12:23:03;;;;;;;7.32;3.92;;;;;;;30.98;32.68;102008.72;5075118;28;20131;-84
2023/09/14 12:25:31;;;;;;;5.25;3.60;;;;;;;30.54;33.45;102011.41;5093181;28;20056;-85
2023/09/14 12:27:59;;;;;;;6.60;4.00;;;;;;;30.24;33.59;102014.72;5078642;28;20036;-85
2023/09/14 12:30:25;;;;;;;6.17;4.07;;;;;;;30.14;34.30;102008.56;5095325;28;20031;-85
2023/09/14 12:32:50;;;;;;;6.22;4.15;;;;;;;30.28;34.40;102009.31;5113370;28;20030;-85
2023/09/14 12:35:17;;;;;;;6.93;4.37;;;;;;;31.55;32.16;102002.16;5095552;28;20032;-85
2023/09/14 12:37:43;;;;;;;5.47;4.40;;;;;;;31.45;32.59;102003.34;5095221;28;20294;-85